La Dole, Switzerland
Current Conditions -  °F | °C
As of 1:50 PM on Friday 24 Oct 2014 (Local Time) from LSGG Reporting Station
Few Clouds Few Clouds  
Wind Chill: 52°   Ceiling: Unl
Heat Index: 52°   Visibility: 6mi
Dew Point: 41°   Wind: 10mph
Humidity: 67%   Direction: 40°NE
Pressure: 30.15"   Gusts: NA
Location:  46.43°N, 6.11°E
Report Text: LSGG 241150Z 04009KT 010V080 9999 FEW022 11/05 Q1021 NOSIG
Loading
Personal Weather Stations






























Interactive Weather Map
Tropical Storm Tracking
New forecast layout! Learn more

10-Day Weather Forecast

Advertisements
Track Severe Weather on mobile